createdAt,value
2023-02-28T00:01:08.165Z,3.00
2023-02-28T00:03:29.716Z,5.83
2023-02-28T00:05:51.197Z,5.50
2023-02-28T00:08:12.917Z,2.40
2023-02-28T00:10:34.906Z,1.93
2023-02-28T00:13:01.842Z,1.97
2023-02-28T00:15:24.538Z,3.20
2023-02-28T00:17:46.064Z,2.33
2023-02-28T00:20:12.840Z,1.80
2023-02-28T00:22:34.364Z,2.07
2023-02-28T00:24:55.801Z,2.10
2023-02-28T00:27:17.270Z,2.33
2023-02-28T00:29:38.818Z,2.10
2023-02-28T00:32:00.386Z,2.07
2023-02-28T00:34:21.874Z,2.10
2023-02-28T00:36:46.358Z,2.27
2023-02-28T00:39:07.794Z,2.23
2023-02-28T00:41:29.583Z,2.07
2023-02-28T00:43:51.203Z,1.70
2023-02-28T00:46:12.811Z,2.00
2023-02-28T00:48:34.620Z,1.80
2023-02-28T00:50:56.077Z,1.97
2023-02-28T00:53:17.566Z,1.70
2023-02-28T00:55:38.996Z,2.00
2023-02-28T00:58:00.425Z,1.87
2023-02-28T01:00:22.098Z,1.60
2023-02-28T01:02:43.591Z,2.03
2023-02-28T01:05:05.794Z,2.00
2023-02-28T01:07:27.228Z,2.10
2023-02-28T01:09:48.701Z,1.70
2023-02-28T01:12:10.288Z,1.97
2023-02-28T01:14:31.715Z,1.77
2023-02-28T01:16:53.176Z,2.03
2023-02-28T01:19:14.687Z,2.47
2023-02-28T01:21:36.672Z,2.00
2023-02-28T01:23:58.860Z,2.10
2023-02-28T01:26:22.544Z,2.20
2023-02-28T01:28:44.399Z,2.10
2023-02-28T01:31:06.492Z,2.27
2023-02-28T01:33:29.577Z,2.03
2023-02-28T01:35:51.113Z,2.03
2023-02-28T01:38:21.676Z,2.53
2023-02-28T01:40:43.848Z,2.10
2023-02-28T01:43:25.422Z,2.70
2023-02-28T01:45:46.973Z,2.30
2023-02-28T01:48:10.076Z,2.47
2023-02-28T01:50:38.620Z,2.20
2023-02-28T01:53:05.990Z,2.37
2023-02-28T01:55:29.803Z,2.70
2023-02-28T01:57:55.832Z,2.40
2023-02-28T02:00:21.155Z,2.27
2023-02-28T02:02:48.457Z,2.40
2023-02-28T02:05:22.269Z,2.23
2023-02-28T02:07:47.552Z,2.57
2023-02-28T02:10:13.304Z,2.50
2023-02-28T02:12:52.912Z,2.47
2023-02-28T02:15:22.959Z,2.60
2023-02-28T02:17:49.421Z,2.37
2023-02-28T02:20:39.211Z,2.57
2023-02-28T02:23:46.120Z,2.70
2023-02-28T02:26:16.676Z,2.80
2023-02-28T02:28:57.729Z,2.90
2023-02-28T02:31:56.461Z,2.90
2023-02-28T02:34:27.664Z,2.90
2023-02-28T02:37:20.541Z,2.90
2023-02-28T02:40:12.445Z,3.03
2023-02-28T02:42:58.008Z,2.93
2023-02-28T02:45:26.851Z,3.07
2023-02-28T02:47:50.324Z,3.37
2023-02-28T02:50:20.796Z,3.07
2023-02-28T02:52:59.032Z,3.20
2023-02-28T02:55:22.946Z,2.97
2023-02-28T02:58:00.500Z,3.23
2023-02-28T03:00:28.096Z,3.40
2023-02-28T03:02:52.026Z,3.23
2023-02-28T03:05:24.705Z,3.10
2023-02-28T03:07:46.235Z,3.37
2023-02-28T03:10:31.441Z,3.37
2023-02-28T03:13:05.637Z,3.93
2023-02-28T03:15:46.181Z,2.93
2023-02-28T03:18:15.490Z,3.07
2023-02-28T03:21:00.643Z,3.40
2023-02-28T03:23:49.517Z,3.20
2023-02-28T03:26:27.368Z,3.27
2023-02-28T03:29:13.942Z,3.20
2023-02-28T03:31:42.453Z,3.20
2023-02-28T03:34:11.784Z,3.87
2023-02-28T03:36:48.777Z,3.50
2023-02-28T03:39:19.835Z,4.17
2023-02-28T03:41:50.569Z,3.73
2023-02-28T03:44:19.028Z,3.90
2023-02-28T03:46:45.796Z,3.47
2023-02-28T03:49:17.234Z,3.50
2023-02-28T03:51:41.614Z,4.23
2023-02-28T03:54:15.941Z,4.67
2023-02-28T03:56:49.612Z,4.07
2023-02-28T03:59:19.535Z,4.87
2023-02-28T04:01:46.147Z,4.97
2023-02-28T04:04:09.289Z,4.40
2023-02-28T04:06:33.053Z,4.43
2023-02-28T04:08:55.225Z,5.33
2023-02-28T04:11:29.125Z,4.83
2023-02-28T04:13:50.824Z,4.67
2023-02-28T04:16:18.793Z,4.23
2023-02-28T04:18:46.092Z,4.30
2023-02-28T04:21:08.131Z,5.07
2023-02-28T04:23:29.555Z,5.27
2023-02-28T04:25:52.195Z,4.97
2023-02-28T04:28:13.633Z,5.13
2023-02-28T04:30:35.110Z,5.37
2023-02-28T04:32:56.526Z,5.60
2023-02-28T04:35:17.972Z,5.00
2023-02-28T04:37:39.445Z,5.73
2023-02-28T04:40:00.909Z,4.80
2023-02-28T04:42:22.402Z,5.33
2023-02-28T04:44:43.835Z,5.43
2023-02-28T04:47:06.685Z,5.97
2023-02-28T04:49:28.189Z,5.50
2023-02-28T04:51:50.955Z,5.90
2023-02-28T04:54:12.773Z,6.30
2023-02-28T04:56:34.327Z,5.50
2023-02-28T04:58:55.792Z,6.57
2023-02-28T05:01:18.633Z,6.57
2023-02-28T05:03:43.949Z,6.90
2023-02-28T05:06:05.700Z,6.27
2023-02-28T05:08:27.409Z,6.70
2023-02-28T05:10:48.837Z,7.67
2023-02-28T05:13:13.150Z,6.70
2023-02-28T05:15:35.716Z,7.07
2023-02-28T05:17:57.292Z,6.20
2023-02-28T05:20:18.862Z,6.33
2023-02-28T05:22:41.873Z,6.60
2023-02-28T05:25:04.160Z,6.63
2023-02-28T05:27:25.994Z,6.37
2023-02-28T05:29:47.480Z,6.93
2023-02-28T05:32:15.849Z,7.00
2023-02-28T05:34:40.758Z,6.97
2023-02-28T05:37:02.272Z,7.80
2023-02-28T05:39:23.725Z,6.50
2023-02-28T05:41:45.215Z,6.70
2023-02-28T05:44:06.685Z,6.07
2023-02-28T05:46:28.230Z,6.37
2023-02-28T05:48:50.216Z,6.13
2023-02-28T05:51:11.807Z,5.57
2023-02-28T05:53:33.958Z,5.10
2023-02-28T05:55:55.826Z,6.00
2023-02-28T05:58:17.264Z,5.67
2023-02-28T06:00:40.293Z,5.67
2023-02-28T06:03:03.125Z,6.03
2023-02-28T06:05:25.440Z,6.73
2023-02-28T06:07:46.896Z,5.80
2023-02-28T06:10:09.250Z,6.10
2023-02-28T06:12:30.708Z,6.50
2023-02-28T06:14:52.145Z,6.33
2023-02-28T06:17:13.599Z,5.73
2023-02-28T06:19:35.281Z,10.90
2023-02-28T06:21:57.957Z,7.10
2023-02-28T06:24:20.607Z,7.63
2023-02-28T06:26:42.077Z,7.87
2023-02-28T06:29:04.020Z,7.57
2023-02-28T06:31:27.076Z,7.40
2023-02-28T06:33:49.251Z,7.60
2023-02-28T06:36:13.425Z,6.87
2023-02-28T06:38:36.197Z,7.30
2023-02-28T06:40:59.423Z,7.07
2023-02-28T06:43:20.898Z,7.33
2023-02-28T06:45:44.449Z,8.87
2023-02-28T06:48:06.126Z,8.27
2023-02-28T06:50:29.401Z,9.00
2023-02-28T06:52:54.907Z,12.10
2023-02-28T06:55:16.396Z,18.77
2023-02-28T06:57:37.970Z,17.67
2023-02-28T07:00:00.518Z,14.60
2023-02-28T07:02:21.948Z,11.57
2023-02-28T07:04:45.638Z,11.70
2023-02-28T07:07:07.200Z,9.37
2023-02-28T07:09:31.061Z,8.17
2023-02-28T07:11:52.581Z,8.77
2023-02-28T07:14:14.020Z,8.17
2023-02-28T07:16:36.604Z,6.70
2023-02-28T07:18:58.031Z,7.37
2023-02-28T07:21:19.551Z,6.83
2023-02-28T07:23:42.520Z,6.60
2023-02-28T07:26:04.165Z,5.97
2023-02-28T07:28:26.320Z,6.50
2023-02-28T07:30:49.132Z,5.63
2023-02-28T07:33:10.773Z,5.17
2023-02-28T07:35:32.579Z,4.73
2023-02-28T07:37:54.059Z,5.70
2023-02-28T07:40:15.983Z,5.60
2023-02-28T07:42:37.705Z,5.53
2023-02-28T07:44:59.932Z,5.43
2023-02-28T07:47:21.396Z,5.67
2023-02-28T07:49:42.840Z,5.63
2023-02-28T07:52:06.190Z,5.23
2023-02-28T07:54:27.642Z,5.57
2023-02-28T07:56:49.085Z,6.23
2023-02-28T07:59:10.594Z,6.30
2023-02-28T08:01:32.276Z,6.30
2023-02-28T08:03:55.821Z,6.30
2023-02-28T08:06:20.605Z,5.60
2023-02-28T08:08:42.006Z,6.40
2023-02-28T08:11:04.536Z,7.17
2023-02-28T08:13:26.138Z,6.40
2023-02-28T08:15:48.439Z,6.07
2023-02-28T08:18:10.871Z,5.77
2023-02-28T08:20:32.358Z,5.90
2023-02-28T08:22:54.020Z,5.83
2023-02-28T08:25:15.520Z,6.00
2023-02-28T08:27:37.115Z,6.07
2023-02-28T08:29:58.637Z,5.60
2023-02-28T08:32:29.404Z,5.67
2023-02-28T08:34:52.213Z,5.63
2023-02-28T08:37:13.698Z,5.00
2023-02-28T08:39:36.882Z,5.47
2023-02-28T08:42:07.153Z,5.80
2023-02-28T08:44:29.413Z,23.73
2023-02-28T08:46:50.882Z,31.43
2023-02-28T08:49:12.665Z,44.03
2023-02-28T08:51:34.092Z,15.97
2023-02-28T08:54:00.999Z,8.10
2023-02-28T08:56:23.187Z,7.80
2023-02-28T08:58:46.567Z,5.87
2023-02-28T09:01:13.197Z,7.77
2023-02-28T09:03:34.763Z,5.60
2023-02-28T09:05:58.598Z,7.27
2023-02-28T09:08:20.118Z,6.23
2023-02-28T09:10:41.575Z,5.80
2023-02-28T09:13:03.015Z,4.80
2023-02-28T09:15:24.456Z,5.37
2023-02-28T09:17:47.212Z,5.20
2023-02-28T09:20:10.978Z,5.40
2023-02-28T09:22:32.429Z,5.03
2023-02-28T09:24:54.034Z,4.70
2023-02-28T09:27:15.466Z,5.23
2023-02-28T09:29:37.142Z,5.27
2023-02-28T09:31:59.802Z,5.03
2023-02-28T09:34:21.539Z,4.77
2023-02-28T09:36:45.565Z,4.50
2023-02-28T09:39:08.334Z,4.50
2023-02-28T09:41:40.864Z,4.30
2023-02-28T09:44:05.244Z,4.60
2023-02-28T09:46:41.670Z,4.50
2023-02-28T09:49:07.825Z,4.93
2023-02-28T09:51:37.182Z,6.17
2023-02-28T09:54:01.989Z,4.80
2023-02-28T09:56:32.294Z,7.87
2023-02-28T09:59:05.874Z,5.93
2023-02-28T10:01:58.354Z,4.60
2023-02-28T10:04:43.481Z,5.37
2023-02-28T10:07:19.288Z,4.30
2023-02-28T10:09:40.955Z,4.67
2023-02-28T10:12:07.509Z,4.70
2023-02-28T10:14:31.492Z,4.80
2023-02-28T10:17:16.719Z,4.53
2023-02-28T10:19:50.549Z,3.87
2023-02-28T10:22:23.636Z,4.50
2023-02-28T10:24:49.974Z,4.30
2023-02-28T10:27:21.130Z,3.80
2023-02-28T10:30:11.982Z,4.47
2023-02-28T10:32:36.399Z,4.10
2023-02-28T10:35:09.983Z,5.27
2023-02-28T10:37:33.170Z,4.57
2023-02-28T10:39:54.630Z,4.50
2023-02-28T10:42:27.814Z,3.90
2023-02-28T10:44:49.395Z,3.80
2023-02-28T10:47:18.666Z,4.30
2023-02-28T10:49:48.532Z,3.83
2023-02-28T10:52:10.613Z,3.63
2023-02-28T10:54:36.392Z,4.03
2023-02-28T10:57:22.651Z,4.67
2023-02-28T10:59:45.320Z,4.10
2023-02-28T11:02:36.564Z,4.00
2023-02-28T11:04:58.599Z,3.87
2023-02-28T11:07:24.354Z,3.90
2023-02-28T11:09:50.428Z,5.20
2023-02-28T11:12:27.192Z,5.07
2023-02-28T11:14:54.401Z,4.37
2023-02-28T11:17:30.927Z,5.33
2023-02-28T11:19:56.906Z,5.53
2023-02-28T11:22:22.710Z,5.13
2023-02-28T11:24:49.613Z,4.33
2023-02-28T11:27:34.679Z,4.50
2023-02-28T11:29:56.357Z,5.00
2023-02-28T11:32:29.945Z,4.50
2023-02-28T11:35:11.590Z,4.90
2023-02-28T11:37:34.115Z,4.47
2023-02-28T11:39:56.757Z,4.97
2023-02-28T11:42:44.375Z,4.53
2023-02-28T11:45:44.657Z,4.90
2023-02-28T11:48:19.703Z,5.00
2023-02-28T11:50:53.122Z,4.80
2023-02-28T11:53:20.581Z,4.67
2023-02-28T11:55:55.825Z,5.20
2023-02-28T11:58:40.631Z,5.23
2023-02-28T12:01:29.238Z,4.87
2023-02-28T12:04:11.894Z,4.87
2023-02-28T12:06:58.846Z,4.70
2023-02-28T12:10:09.530Z,5.67
2023-02-28T12:12:51.655Z,4.90
2023-02-28T12:15:15.758Z,4.60
2023-02-28T12:18:01.309Z,4.93
2023-02-28T12:20:28.686Z,5.17
2023-02-28T12:23:06.137Z,4.77
2023-02-28T12:25:45.829Z,5.20
2023-02-28T12:28:12.067Z,5.47
2023-02-28T12:30:36.615Z,4.90
2023-02-28T12:33:10.652Z,5.13
2023-02-28T12:35:47.295Z,5.20
2023-02-28T12:38:21.728Z,5.20
2023-02-28T12:40:55.085Z,5.10
2023-02-28T12:43:18.554Z,4.90
2023-02-28T12:46:25.095Z,4.57
2023-02-28T12:48:56.622Z,4.80
2023-02-28T12:51:19.904Z,5.13
2023-02-28T12:54:00.086Z,4.67
2023-02-28T12:56:34.121Z,5.60
2023-02-28T12:59:02.249Z,5.03
2023-02-28T13:01:49.263Z,6.77
2023-02-28T13:04:53.489Z,9.53
2023-02-28T13:07:20.898Z,5.87
2023-02-28T13:09:52.009Z,7.47
2023-02-28T13:12:15.552Z,9.97
2023-02-28T13:14:38.990Z,9.27
2023-02-28T13:17:21.805Z,5.80
2023-02-28T13:19:58.290Z,7.87
2023-02-28T13:22:37.374Z,6.87
2023-02-28T13:24:59.030Z,5.27
2023-02-28T13:27:41.627Z,5.10
2023-02-28T13:30:41.627Z,6.43
2023-02-28T13:33:24.757Z,10.53
2023-02-28T13:35:47.133Z,7.53
2023-02-28T13:38:24.040Z,7.37
2023-02-28T13:40:45.529Z,5.67
2023-02-28T13:43:10.205Z,6.30
2023-02-28T13:45:38.153Z,6.10
2023-02-28T13:48:03.127Z,5.90
2023-02-28T13:50:36.096Z,6.13
2023-02-28T13:53:16.031Z,5.90
2023-02-28T13:56:10.874Z,5.73
2023-02-28T13:58:54.026Z,6.87
2023-02-28T14:01:44.020Z,6.50
2023-02-28T14:04:43.229Z,8.00
2023-02-28T14:07:05.313Z,7.07
2023-02-28T14:09:37.541Z,6.20
2023-02-28T14:12:26.078Z,7.33
2023-02-28T14:14:48.238Z,6.70
2023-02-28T14:17:16.830Z,5.97
2023-02-28T14:19:39.763Z,5.43
2023-02-28T14:22:13.435Z,6.00
2023-02-28T14:24:44.636Z,5.27
2023-02-28T14:27:15.537Z,5.70
2023-02-28T14:29:52.050Z,5.60
2023-02-28T14:32:24.626Z,6.60
2023-02-28T14:34:56.711Z,5.97
2023-02-28T14:37:27.424Z,6.00
2023-02-28T14:39:49.575Z,5.87
2023-02-28T14:42:31.084Z,6.30
2023-02-28T14:44:57.401Z,5.80
2023-02-28T14:47:18.912Z,6.10
2023-02-28T14:49:46.676Z,6.07
2023-02-28T14:52:10.976Z,7.47
2023-02-28T14:54:32.697Z,6.73
2023-02-28T14:56:54.267Z,7.07
2023-02-28T14:59:30.476Z,5.70
2023-02-28T15:01:52.105Z,5.90
2023-02-28T15:04:24.031Z,6.33
2023-02-28T15:06:45.546Z,6.03
2023-02-28T15:09:19.652Z,5.60
2023-02-28T15:11:41.690Z,5.40
2023-02-28T15:14:04.332Z,6.83
2023-02-28T15:16:39.635Z,6.40
2023-02-28T15:19:04.381Z,6.87
2023-02-28T15:21:30.282Z,6.50
2023-02-28T15:24:00.288Z,5.97
2023-02-28T15:26:26.875Z,6.93
2023-02-28T15:28:54.420Z,6.97
2023-02-28T15:31:36.169Z,6.83
2023-02-28T15:34:05.667Z,6.40
2023-02-28T15:36:32.773Z,6.40
2023-02-28T15:38:56.128Z,5.97
2023-02-28T15:41:30.981Z,6.40
2023-02-28T15:44:27.845Z,6.50
2023-02-28T15:46:59.716Z,6.20
2023-02-28T15:49:23.487Z,6.77
2023-02-28T15:51:44.981Z,6.67
2023-02-28T15:54:09.621Z,6.67
2023-02-28T15:56:45.542Z,7.73
2023-02-28T15:59:13.864Z,6.80
2023-02-28T16:01:37.876Z,6.67
2023-02-28T16:04:03.782Z,6.77
2023-02-28T16:06:45.550Z,6.67
2023-02-28T16:09:09.570Z,8.30
2023-02-28T16:11:31.943Z,7.83
2023-02-28T16:13:54.200Z,8.93
2023-02-28T16:16:18.391Z,10.73
2023-02-28T16:18:39.873Z,10.87
2023-02-28T16:21:01.333Z,8.17
2023-02-28T16:23:23.039Z,8.47
2023-02-28T16:25:47.122Z,8.10
2023-02-28T16:28:33.743Z,7.67
2023-02-28T16:30:55.653Z,7.27
2023-02-28T16:33:17.108Z,7.20
2023-02-28T16:35:38.653Z,7.80
2023-02-28T16:38:00.419Z,6.83
2023-02-28T16:40:26.869Z,8.40
2023-02-28T16:42:51.555Z,8.40
2023-02-28T16:45:23.078Z,8.80
2023-02-28T16:47:44.636Z,8.20
2023-02-28T16:50:14.686Z,8.43
2023-02-28T16:52:36.190Z,8.50
2023-02-28T16:54:57.757Z,10.23
2023-02-28T16:57:24.193Z,10.33
2023-02-28T16:59:45.808Z,10.60
2023-02-28T17:02:20.765Z,15.07
2023-02-28T17:04:42.347Z,12.83
2023-02-28T17:07:03.884Z,14.13
2023-02-28T17:09:36.621Z,15.07
2023-02-28T17:12:02.954Z,14.73
2023-02-28T17:14:24.565Z,13.03
2023-02-28T17:16:46.127Z,14.70
2023-02-28T17:19:12.621Z,17.10
2023-02-28T17:21:35.221Z,15.40
2023-02-28T17:23:57.018Z,13.37
2023-02-28T17:26:25.379Z,11.80
2023-02-28T17:28:48.476Z,12.43
2023-02-28T17:31:10.841Z,11.70
2023-02-28T17:33:32.477Z,12.23
2023-02-28T17:35:54.081Z,11.93
2023-02-28T17:38:20.517Z,11.43
2023-02-28T17:40:42.002Z,11.53
2023-02-28T17:43:03.483Z,12.73
2023-02-28T17:45:25.049Z,11.63
2023-02-28T17:47:49.076Z,11.70
2023-02-28T17:50:17.191Z,11.13
2023-02-28T17:52:39.111Z,11.80
2023-02-28T17:55:00.604Z,11.87
2023-02-28T17:57:22.093Z,12.33
2023-02-28T17:59:44.521Z,11.57
2023-02-28T18:02:05.966Z,11.13
2023-02-28T18:04:28.036Z,11.77
2023-02-28T18:06:50.894Z,10.30
2023-02-28T18:09:18.906Z,9.70
2023-02-28T18:11:44.792Z,11.03
2023-02-28T18:14:06.221Z,11.17
2023-02-28T18:16:28.968Z,13.33
2023-02-28T18:18:50.757Z,12.37
2023-02-28T18:21:14.904Z,11.90
2023-02-28T18:23:36.988Z,13.30
2023-02-28T18:25:58.967Z,14.63
2023-02-28T18:28:20.575Z,15.50
2023-02-28T18:30:42.863Z,15.40
2023-02-28T18:33:04.797Z,16.73
2023-02-28T18:35:36.579Z,14.17
2023-02-28T18:37:58.079Z,13.80
2023-02-28T18:40:19.715Z,15.57
2023-02-28T18:42:41.164Z,15.47
2023-02-28T18:45:02.747Z,16.30
2023-02-28T18:47:24.210Z,13.30
2023-02-28T18:49:45.659Z,12.80
2023-02-28T18:52:07.112Z,13.03
2023-02-28T18:54:28.632Z,15.83
2023-02-28T18:56:50.956Z,16.37
2023-02-28T18:59:12.496Z,17.57
2023-02-28T19:01:34.624Z,17.57
2023-02-28T19:03:56.625Z,15.33
2023-02-28T19:06:18.851Z,15.00
2023-02-28T19:08:40.393Z,14.50
2023-02-28T19:11:10.023Z,14.20
2023-02-28T19:13:31.799Z,12.90
2023-02-28T19:16:02.142Z,12.70
2023-02-28T19:18:23.661Z,12.47
2023-02-28T19:20:45.974Z,12.33
2023-02-28T19:23:07.590Z,12.37
2023-02-28T19:25:29.238Z,12.00
2023-02-28T19:27:54.874Z,11.90
2023-02-28T19:30:16.604Z,13.23
2023-02-28T19:32:38.166Z,12.60
2023-02-28T19:34:59.637Z,12.30
2023-02-28T19:37:21.096Z,13.10
2023-02-28T19:39:46.365Z,12.30
2023-02-28T19:42:10.079Z,12.10
2023-02-28T19:44:31.555Z,11.63
2023-02-28T19:46:54.463Z,11.20
2023-02-28T19:49:18.564Z,11.57
2023-02-28T19:51:41.155Z,10.83
2023-02-28T19:54:03.880Z,10.77
2023-02-28T19:56:26.105Z,12.37
2023-02-28T19:58:47.819Z,12.77
2023-02-28T20:01:15.538Z,12.70
2023-02-28T20:03:37.395Z,39.20
2023-02-28T20:06:01.488Z,27.93
2023-02-28T20:08:22.913Z,12.43
2023-02-28T20:10:44.397Z,11.83
2023-02-28T20:13:05.996Z,16.97
2023-02-28T20:15:27.750Z,14.57
2023-02-28T20:17:49.178Z,12.90
2023-02-28T20:20:11.751Z,13.67
2023-02-28T20:22:33.471Z,16.67
2023-02-28T20:24:54.941Z,18.80
2023-02-28T20:27:17.313Z,15.83
2023-02-28T20:29:38.849Z,17.03
2023-02-28T20:32:00.623Z,17.57
2023-02-28T20:34:23.323Z,18.00
2023-02-28T20:36:44.769Z,17.23
2023-02-28T20:39:06.252Z,17.37
2023-02-28T20:41:27.849Z,16.13
2023-02-28T20:43:58.256Z,16.43
2023-02-28T20:46:19.866Z,16.90
2023-02-28T20:48:41.427Z,15.60
2023-02-28T20:51:05.154Z,12.87
2023-02-28T20:53:27.657Z,13.50
2023-02-28T20:56:00.012Z,12.30
2023-02-28T20:58:21.740Z,10.57
2023-02-28T21:00:43.228Z,11.07
2023-02-28T21:03:04.693Z,11.30
2023-02-28T21:05:26.143Z,11.93
2023-02-28T21:07:47.592Z,12.03
2023-02-28T21:10:09.983Z,11.07
2023-02-28T21:12:31.521Z,11.07
2023-02-28T21:14:52.944Z,11.40
2023-02-28T21:17:14.458Z,11.83
2023-02-28T21:19:36.043Z,12.53
2023-02-28T21:21:58.579Z,13.53
2023-02-28T21:24:20.688Z,11.07
2023-02-28T21:26:44.433Z,12.20
2023-02-28T21:29:05.959Z,11.73
2023-02-28T21:31:31.243Z,10.80
2023-02-28T21:33:57.279Z,11.50
2023-02-28T21:36:21.100Z,11.17
2023-02-28T21:38:43.893Z,10.93
2023-02-28T21:41:12.996Z,12.17
2023-02-28T21:43:34.989Z,14.13
2023-02-28T21:45:56.456Z,11.50
2023-02-28T21:48:17.871Z,11.57
2023-02-28T21:50:39.863Z,11.83
2023-02-28T21:53:01.378Z,10.90
2023-02-28T21:55:22.788Z,12.00
2023-02-28T21:57:44.354Z,12.17
2023-02-28T22:00:06.825Z,11.00
2023-02-28T22:02:30.210Z,13.07
2023-02-28T22:04:52.515Z,11.53
2023-02-28T22:07:14.069Z,11.17
2023-02-28T22:09:35.497Z,12.90
2023-02-28T22:11:58.027Z,12.50
2023-02-28T22:14:19.626Z,13.20
2023-02-28T22:16:51.221Z,11.37
2023-02-28T22:19:13.286Z,14.40
2023-02-28T22:21:35.898Z,12.50
2023-02-28T22:23:57.397Z,12.53
2023-02-28T22:26:22.101Z,13.00
2023-02-28T22:28:43.723Z,11.93
2023-02-28T22:31:27.947Z,11.93
2023-02-28T22:33:50.822Z,16.63
2023-02-28T22:36:15.029Z,20.87
2023-02-28T22:38:36.634Z,17.87
2023-02-28T22:40:58.114Z,15.30
2023-02-28T22:43:19.551Z,12.67
2023-02-28T22:45:41.814Z,14.07
2023-02-28T22:48:07.799Z,14.47
2023-02-28T22:50:29.820Z,14.37
2023-02-28T22:52:51.861Z,13.50
2023-02-28T22:55:13.385Z,15.77
2023-02-28T22:57:35.509Z,13.90
2023-02-28T22:59:56.958Z,13.50
2023-02-28T23:02:18.461Z,12.87
2023-02-28T23:04:39.933Z,12.23
2023-02-28T23:07:01.544Z,12.97
2023-02-28T23:09:23.050Z,12.83
2023-02-28T23:11:48.134Z,19.93
2023-02-28T23:14:12.764Z,17.27
2023-02-28T23:16:52.256Z,18.90
2023-02-28T23:19:19.502Z,16.83
2023-02-28T23:21:42.115Z,16.37
2023-02-28T23:24:05.264Z,15.30
2023-02-28T23:26:26.695Z,14.33
2023-02-28T23:28:48.401Z,13.07
2023-02-28T23:31:09.888Z,13.17
2023-02-28T23:33:31.975Z,13.67
2023-02-28T23:35:54.109Z,16.20
2023-02-28T23:38:15.643Z,16.13
2023-02-28T23:40:37.095Z,16.27
2023-02-28T23:42:58.579Z,18.23
2023-02-28T23:45:20.577Z,16.97
2023-02-28T23:47:42.029Z,16.37
2023-02-28T23:50:04.564Z,15.70
2023-02-28T23:52:26.126Z,14.53
2023-02-28T23:54:47.577Z,13.77
2023-02-28T23:57:09.389Z,13.47
2023-02-28T23:59:31.399Z,13.03
